createdAt,value
2022-12-09T00:08:25.477Z,24.20
2022-12-09T00:15:25.374Z,24.30
2022-12-09T00:48:08.671Z,24.20
2022-12-09T01:45:03.739Z,24.10
2022-12-09T01:52:30.070Z,24.10
2022-12-09T01:55:54.099Z,24.10
2022-12-09T01:58:56.480Z,24.10
2022-12-09T02:02:26.657Z,24.10
2022-12-09T02:05:54.044Z,24.00
2022-12-09T02:09:24.107Z,24.00
2022-12-09T02:12:34.989Z,24.00
2022-12-09T02:16:06.097Z,24.00
2022-12-09T02:19:48.053Z,23.90
2022-12-09T02:23:32.591Z,23.90
2022-12-09T02:27:05.999Z,24.00
2022-12-09T02:30:48.075Z,24.10
2022-12-09T02:34:32.993Z,23.90
2022-12-09T02:38:26.731Z,24.00
2022-12-09T02:41:54.159Z,23.90
2022-12-09T02:45:26.983Z,23.90
2022-12-09T02:48:54.190Z,23.90
2022-12-09T02:52:27.533Z,23.90
2022-12-09T02:55:57.133Z,23.90
2022-12-09T02:59:27.782Z,23.90
2022-12-09T03:02:51.389Z,23.90
2022-12-09T03:06:27.734Z,23.90
2022-12-09T03:13:48.630Z,23.90
2022-12-09T03:17:18.793Z,23.80
2022-12-09T03:20:48.536Z,23.90
2022-12-09T03:24:06.522Z,23.80
2022-12-09T03:27:36.575Z,23.80
2022-12-09T03:31:06.776Z,23.80
2022-12-09T03:34:36.897Z,23.80
2022-12-09T03:41:14.998Z,23.70
2022-12-09T03:44:39.163Z,23.90
2022-12-09T03:48:17.179Z,23.80
2022-12-09T03:51:48.952Z,23.80
2022-12-09T03:55:18.814Z,23.70
2022-12-09T03:58:33.452Z,23.70
2022-12-09T04:02:00.982Z,23.70
2022-12-09T04:05:30.001Z,23.80
2022-12-09T04:08:59.425Z,23.70
2022-12-09T04:12:30.304Z,23.30
2022-12-09T04:15:54.996Z,23.30
2022-12-09T04:19:22.700Z,23.40
2022-12-09T04:23:03.578Z,23.30
2022-12-09T04:26:27.505Z,23.40
2022-12-09T04:29:40.590Z,23.40
2022-12-09T04:33:07.482Z,23.40
2022-12-09T04:36:39.576Z,23.50
2022-12-09T04:40:18.184Z,23.40
2022-12-09T04:43:49.259Z,23.40
2022-12-09T04:47:19.634Z,23.40
2022-12-09T04:50:31.013Z,23.40
2022-12-09T04:53:49.473Z,23.50
2022-12-09T04:57:09.844Z,23.50
2022-12-09T05:00:21.219Z,23.60
2022-12-09T05:03:37.738Z,23.50
2022-12-09T05:06:49.533Z,23.40
2022-12-09T05:10:08.088Z,23.40
2022-12-09T05:13:41.360Z,23.40
2022-12-09T05:16:28.025Z,23.30
2022-12-09T05:19:16.044Z,23.40
2022-12-09T05:22:42.986Z,23.40
2022-12-09T05:43:25.979Z,23.30
2022-12-09T06:14:16.253Z,23.20
2022-12-09T08:44:03.545Z,23.20
2022-12-09T08:47:42.204Z,23.30
2022-12-09T08:50:48.629Z,23.30
2022-12-09T08:53:40.737Z,23.20
2022-12-09T08:56:50.793Z,23.30
2022-12-09T11:49:58.442Z,23.60
2022-12-09T11:52:38.109Z,23.70
2022-12-09T11:55:40.116Z,23.60
2022-12-09T11:58:43.314Z,23.60
2022-12-09T12:01:51.002Z,23.50
2022-12-09T12:37:58.677Z,23.60
2022-12-09T12:40:45.270Z,23.60
2022-12-09T12:44:16.352Z,23.60
2022-12-09T12:46:58.990Z,23.60
2022-12-09T13:20:06.643Z,23.70
2022-12-09T13:23:05.004Z,23.70
2022-12-09T13:26:00.516Z,23.70
2022-12-09T13:28:55.828Z,23.70
2022-12-09T13:31:48.720Z,23.60
2022-12-09T13:34:49.898Z,23.80
2022-12-09T13:38:18.958Z,23.70
2022-12-09T13:41:01.803Z,23.70
2022-12-09T13:43:53.716Z,23.60
2022-12-09T13:46:50.005Z,23.60
2022-12-09T13:49:38.522Z,23.70
2022-12-09T13:52:56.075Z,23.60
2022-12-09T13:59:26.130Z,23.60
2022-12-09T14:02:50.229Z,23.60
2022-12-09T14:06:02.197Z,23.50
2022-12-09T14:09:20.221Z,23.60
2022-12-09T14:12:26.252Z,23.70
2022-12-09T14:16:15.012Z,23.60
2022-12-09T14:19:19.460Z,23.60
2022-12-09T14:22:34.461Z,23.50
2022-12-09T14:26:26.589Z,23.50
2022-12-09T14:29:19.030Z,23.70
2022-12-09T14:32:21.007Z,23.60
2022-12-09T14:35:56.464Z,23.60
2022-12-09T14:39:23.863Z,23.60
2022-12-09T14:42:38.534Z,23.60
2022-12-09T14:46:21.250Z,23.60
2022-12-09T14:49:56.611Z,23.50
2022-12-09T14:53:27.304Z,23.50
2022-12-09T14:56:33.336Z,23.60
2022-12-09T14:59:56.795Z,23.50
2022-12-09T15:03:32.166Z,23.50
2022-12-09T15:06:42.003Z,23.50
2022-12-09T15:09:45.443Z,23.60
2022-12-09T15:13:09.471Z,23.50
2022-12-09T15:16:20.920Z,23.50
2022-12-09T15:20:00.155Z,23.50
2022-12-09T15:22:58.218Z,23.50
2022-12-09T15:30:20.931Z,23.50
2022-12-09T15:50:32.307Z,23.40
2022-12-09T15:54:13.795Z,23.30
2022-12-09T16:01:58.901Z,23.30
2022-12-09T16:13:25.432Z,23.30
2022-12-09T16:29:24.551Z,23.40
2022-12-09T16:45:03.150Z,23.40
2022-12-09T16:55:56.252Z,23.40
2022-12-09T16:58:48.985Z,23.30
2022-12-09T17:01:47.818Z,23.30
2022-12-09T17:05:09.324Z,23.40
2022-12-09T17:08:44.106Z,23.30
2022-12-09T17:12:02.134Z,23.30
2022-12-09T17:15:23.982Z,23.40
2022-12-09T17:18:53.946Z,23.50
2022-12-09T17:22:13.640Z,23.60
2022-12-09T17:25:31.093Z,23.50
2022-12-09T17:28:48.045Z,23.50
2022-12-09T17:31:46.419Z,23.40
2022-12-09T17:34:56.333Z,23.40
2022-12-09T17:38:01.946Z,23.50
2022-12-09T17:41:08.390Z,23.50
2022-12-09T17:44:14.420Z,23.40
2022-12-09T17:47:20.448Z,23.30
2022-12-09T17:50:33.077Z,23.40
2022-12-09T17:53:38.503Z,23.40
2022-12-09T17:56:45.128Z,23.30
2022-12-09T17:59:56.742Z,23.40
2022-12-09T18:03:02.872Z,23.30
2022-12-09T18:06:14.613Z,23.40
2022-12-09T18:09:27.232Z,23.40
2022-12-09T18:12:32.677Z,23.40
2022-12-09T18:15:39.285Z,23.40
2022-12-09T18:18:44.740Z,23.40
2022-12-09T18:21:57.340Z,23.40
2022-12-09T18:25:02.805Z,23.40
2022-12-09T18:28:08.836Z,23.40
2022-12-09T18:31:14.995Z,23.50
2022-12-09T18:34:21.445Z,23.40
2022-12-09T18:37:32.934Z,23.40
2022-12-09T18:40:39.499Z,23.30
2022-12-09T18:43:44.997Z,23.40
2022-12-09T18:46:51.624Z,23.30
2022-12-09T18:50:03.058Z,23.40
2022-12-09T18:53:21.085Z,23.40
2022-12-09T18:56:27.116Z,23.40
2022-12-09T18:59:33.669Z,23.40
2022-12-09T19:02:39.263Z,23.40
2022-12-09T19:05:51.726Z,23.30
2022-12-09T19:09:03.228Z,23.50
2022-12-09T19:12:45.270Z,23.50
2022-12-09T19:15:25.085Z,23.60
2022-12-09T19:18:27.833Z,23.60
2022-12-09T19:21:39.340Z,23.80
2022-12-09T19:24:51.890Z,23.80
2022-12-09T19:27:57.396Z,23.80
2022-12-09T19:31:03.995Z,23.80
2022-12-09T19:34:07.284Z,23.90
2022-12-09T19:37:15.491Z,23.80
2022-12-09T19:40:27.523Z,23.90
2022-12-09T19:43:34.051Z,23.90
2022-12-09T19:46:39.621Z,23.90
2022-12-09T19:49:46.096Z,23.90
2022-12-09T19:52:51.641Z,24.00
2022-12-09T19:56:04.152Z,23.90
2022-12-09T19:59:07.313Z,24.00
2022-12-09T20:02:07.692Z,23.90
2022-12-09T20:05:07.483Z,24.00
2022-12-09T20:08:10.302Z,23.90
2022-12-09T20:11:07.965Z,24.00
2022-12-09T20:14:09.832Z,23.90
2022-12-09T20:17:16.325Z,24.00
2022-12-09T20:20:22.353Z,23.90
2022-12-09T20:23:24.071Z,23.90
2022-12-09T20:26:34.406Z,23.80
2022-12-09T20:29:39.973Z,23.90
2022-12-09T20:32:46.455Z,23.90
2022-12-09T20:35:52.484Z,24.00
2022-12-09T20:38:58.507Z,23.90
2022-12-09T20:42:10.103Z,24.00
2022-12-09T20:45:16.135Z,23.90
2022-12-09T20:48:40.591Z,24.00
2022-12-09T20:51:46.618Z,23.80
2022-12-09T20:54:52.236Z,23.90
2022-12-09T20:58:16.679Z,23.90
2022-12-09T21:01:50.145Z,24.00
2022-12-09T21:05:14.370Z,23.90
2022-12-09T21:08:31.274Z,24.10
2022-12-09T21:11:50.427Z,23.80
2022-12-09T21:15:03.212Z,24.00
2022-12-09T21:18:15.240Z,24.00
2022-12-09T21:21:27.267Z,24.00
2022-12-09T21:24:45.346Z,24.10
2022-12-09T21:27:57.488Z,24.10
2022-12-09T21:31:09.766Z,24.10
2022-12-09T21:38:15.910Z,24.10
2022-12-09T21:41:52.089Z,24.10
2022-12-09T21:45:34.358Z,24.10
2022-12-09T21:49:07.010Z,24.20
2022-12-09T21:53:39.587Z,24.10
2022-12-09T22:01:09.716Z,24.20
2022-12-09T22:04:21.597Z,24.10
2022-12-09T22:07:27.755Z,24.20
2022-12-09T22:10:32.228Z,24.10
2022-12-09T22:13:39.934Z,24.00
2022-12-09T22:16:51.192Z,24.10
2022-12-09T22:20:43.886Z,24.10
2022-12-09T22:23:27.196Z,24.00
2022-12-09T22:26:33.883Z,24.10
2022-12-09T22:29:39.246Z,24.10
2022-12-09T22:32:50.626Z,24.10
2022-12-09T22:36:03.300Z,24.10
2022-12-09T22:39:09.989Z,24.10
2022-12-09T22:42:03.349Z,24.10
2022-12-09T22:45:10.042Z,24.10
2022-12-09T22:48:14.319Z,24.10
2022-12-09T22:51:34.104Z,24.10
2022-12-09T22:54:39.462Z,24.10
2022-12-09T22:57:40.156Z,24.10
2022-12-09T23:00:50.443Z,24.10
2022-12-09T23:03:52.207Z,24.10
2022-12-09T23:07:03.580Z,24.10
2022-12-09T23:10:10.476Z,24.00
2022-12-09T23:13:06.503Z,24.10
2022-12-09T23:16:04.358Z,24.00
2022-12-09T23:19:09.690Z,24.10
2022-12-09T23:22:21.715Z,24.10
2022-12-09T23:25:27.745Z,24.00
2022-12-09T23:28:33.769Z,24.10
2022-12-09T23:31:45.796Z,24.10
2022-12-09T23:34:52.493Z,24.10
2022-12-09T23:38:09.855Z,24.10
2022-12-09T23:41:16.548Z,24.10
2022-12-09T23:44:27.919Z,24.20
2022-12-09T23:47:33.948Z,24.10
2022-12-09T23:50:39.971Z,24.20
2022-12-09T23:53:52.658Z,24.10
2022-12-09T23:57:04.027Z,24.10
